Intercession City, Florida
Current Conditions -  °F | °C
As of 3:50 PM on Thursday 23 Oct 2014 (Local Time) from KISM Reporting Station
Few Clouds Few Clouds  
Wind Chill: 81°   Ceiling: Unl
Heat Index: 81°   Visibility: 10mi
Dew Point: 55°   Wind: 9mph
Humidity: 42%   Direction: 70°ENE
Pressure: 29.94"   Gusts: NA
Location:  28.26°N, 81.51°W
Report Text: KISM 231950Z 07008KT 10SM FEW070 27/13 A2994
Loading
Personal Weather Stations






























Interactive Weather Map
Tropical Storm Tracking
New forecast layout! Learn more

10-Day Weather Forecast

Advertisements
Track Severe Weather on mobile